sensor_id;sensor_type;location;lat;lon;timestamp;pressure;altitude;pressure_sealevel;temperature;humidity
829;BME280;396;52.558;13.188;2023-07-29T00:00:07;100335.81;;;17.60;100.00
829;BME280;396;52.558;13.188;2023-07-29T00:02:34;100330.34;;;17.60;100.00
829;BME280;396;52.558;13.188;2023-07-29T00:05:01;100326.34;;;17.57;100.00
829;BME280;396;52.558;13.188;2023-07-29T00:07:29;100330.16;;;17.53;100.00
829;BME280;396;52.558;13.188;2023-07-29T00:09:55;100323.91;;;17.52;100.00
829;BME280;396;52.558;13.188;2023-07-29T00:12:22;100321.53;;;17.51;100.00
829;BME280;396;52.558;13.188;2023-07-29T00:14:49;100323.81;;;17.49;100.00
829;BME280;396;52.558;13.188;2023-07-29T00:17:15;100319.47;;;17.48;100.00
829;BME280;396;52.558;13.188;2023-07-29T00:19:42;100324.53;;;17.46;100.00
829;BME280;396;52.558;13.188;2023-07-29T00:22:08;100328.41;;;17.45;100.00
829;BME280;396;52.558;13.188;2023-07-29T00:24:36;100318.16;;;17.42;100.00
829;BME280;396;52.558;13.188;2023-07-29T00:27:03;100318.88;;;17.38;100.00
829;BME280;396;52.558;13.188;2023-07-29T00:29:29;100319.22;;;17.37;100.00
829;BME280;396;52.558;13.188;2023-07-29T00:31:56;100314.81;;;17.32;100.00
829;BME280;396;52.558;13.188;2023-07-29T00:34:23;100323.72;;;17.29;100.00
829;BME280;396;52.558;13.188;2023-07-29T00:36:50;100329.09;;;17.26;100.00
829;BME280;396;52.558;13.188;2023-07-29T00:39:17;100334.06;;;17.20;100.00
829;BME280;396;52.558;13.188;2023-07-29T00:41:45;100327.00;;;17.19;100.00
829;BME280;396;52.558;13.188;2023-07-29T00:44:12;100323.78;;;17.17;100.00
829;BME280;396;52.558;13.188;2023-07-29T00:46:40;100329.28;;;17.17;100.00
829;BME280;396;52.558;13.188;2023-07-29T00:49:07;100320.63;;;17.15;100.00
829;BME280;396;52.558;13.188;2023-07-29T00:51:33;100314.16;;;17.07;100.00
829;BME280;396;52.558;13.188;2023-07-29T00:54:00;100321.50;;;17.03;100.00
829;BME280;396;52.558;13.188;2023-07-29T00:56:27;100312.38;;;16.99;100.00
829;BME280;396;52.558;13.188;2023-07-29T00:58:55;100313.91;;;16.97;100.00
829;BME280;396;52.558;13.188;2023-07-29T01:01:25;100305.94;;;16.92;100.00
829;BME280;396;52.558;13.188;2023-07-29T01:03:52;100302.50;;;16.95;100.00
829;BME280;396;52.558;13.188;2023-07-29T01:06:28;100304.09;;;16.96;100.00
829;BME280;396;52.558;13.188;2023-07-29T01:09:00;100298.97;;;16.94;100.00
829;BME280;396;52.558;13.188;2023-07-29T01:11:35;100300.91;;;16.94;100.00
829;BME280;396;52.558;13.188;2023-07-29T01:14:13;100285.66;;;16.93;100.00
829;BME280;396;52.558;13.188;2023-07-29T01:16:47;100291.81;;;16.89;100.00
829;BME280;396;52.558;13.188;2023-07-29T01:19:26;100289.75;;;16.86;100.00
829;BME280;396;52.558;13.188;2023-07-29T01:21:58;100283.16;;;16.87;100.00
829;BME280;396;52.558;13.188;2023-07-29T01:24:26;100279.66;;;16.87;100.00
829;BME280;396;52.558;13.188;2023-07-29T01:26:53;100281.38;;;16.79;100.00
829;BME280;396;52.558;13.188;2023-07-29T01:29:20;100281.13;;;16.84;100.00
829;BME280;396;52.558;13.188;2023-07-29T01:31:49;100282.97;;;16.80;100.00
829;BME280;396;52.558;13.188;2023-07-29T01:34:26;100282.78;;;16.73;100.00
829;BME280;396;52.558;13.188;2023-07-29T01:36:57;100284.38;;;16.74;100.00
829;BME280;396;52.558;13.188;2023-07-29T01:39:29;100286.66;;;16.72;100.00
829;BME280;396;52.558;13.188;2023-07-29T01:41:58;100291.81;;;16.74;100.00
829;BME280;396;52.558;13.188;2023-07-29T01:44:26;100293.03;;;16.76;100.00
829;BME280;396;52.558;13.188;2023-07-29T01:46:55;100286.66;;;16.72;100.00
829;BME280;396;52.558;13.188;2023-07-29T01:49:21;100293.59;;;16.70;100.00
829;BME280;396;52.558;13.188;2023-07-29T01:51:48;100292.47;;;16.71;100.00
829;BME280;396;52.558;13.188;2023-07-29T01:54:14;100291.66;;;16.70;100.00
829;BME280;396;52.558;13.188;2023-07-29T01:56:42;100295.09;;;16.67;100.00
829;BME280;396;52.558;13.188;2023-07-29T01:59:09;100288.03;;;16.66;100.00
829;BME280;396;52.558;13.188;2023-07-29T02:01:36;100282.19;;;16.68;100.00
829;BME280;396;52.558;13.188;2023-07-29T02:04:02;100283.25;;;16.63;100.00
829;BME280;396;52.558;13.188;2023-07-29T02:06:29;100278.84;;;16.58;100.00
829;BME280;396;52.558;13.188;2023-07-29T02:08:56;100283.16;;;16.59;100.00
829;BME280;396;52.558;13.188;2023-07-29T02:11:22;100283.75;;;16.53;100.00
829;BME280;396;52.558;13.188;2023-07-29T02:13:54;100286.25;;;16.58;100.00
829;BME280;396;52.558;13.188;2023-07-29T02:16:21;100296.38;;;16.57;100.00
829;BME280;396;52.558;13.188;2023-07-29T02:18:48;100292.66;;;16.50;100.00
829;BME280;396;52.558;13.188;2023-07-29T02:21:15;100296.19;;;16.50;100.00
829;BME280;396;52.558;13.188;2023-07-29T02:23:42;100295.84;;;16.52;100.00
829;BME280;396;52.558;13.188;2023-07-29T02:26:09;100293.44;;;16.50;100.00
829;BME280;396;52.558;13.188;2023-07-29T02:28:36;100280.81;;;16.46;100.00
829;BME280;396;52.558;13.188;2023-07-29T02:31:14;100277.91;;;16.38;100.00
829;BME280;396;52.558;13.188;2023-07-29T02:33:40;100282.22;;;16.39;100.00
829;BME280;396;52.558;13.188;2023-07-29T02:36:07;100276.28;;;16.37;100.00
829;BME280;396;52.558;13.188;2023-07-29T02:38:34;100271.66;;;16.38;100.00
829;BME280;396;52.558;13.188;2023-07-29T02:41:00;100279.50;;;16.39;100.00
829;BME280;396;52.558;13.188;2023-07-29T02:43:27;100279.50;;;16.39;100.00
829;BME280;396;52.558;13.188;2023-07-29T02:45:54;100273.13;;;16.35;100.00
829;BME280;396;52.558;13.188;2023-07-29T02:48:21;100284.84;;;16.36;100.00
829;BME280;396;52.558;13.188;2023-07-29T02:50:48;100280.78;;;16.30;100.00
829;BME280;396;52.558;13.188;2023-07-29T02:53:15;100272.91;;;16.28;100.00
829;BME280;396;52.558;13.188;2023-07-29T02:55:41;100272.47;;;16.26;100.00
829;BME280;396;52.558;13.188;2023-07-29T02:58:08;100267.44;;;16.28;100.00
829;BME280;396;52.558;13.188;2023-07-29T03:00:35;100270.09;;;16.25;100.00
829;BME280;396;52.558;13.188;2023-07-29T03:03:01;100269.63;;;16.23;100.00
829;BME280;396;52.558;13.188;2023-07-29T03:05:29;100275.22;;;16.26;100.00
829;BME280;396;52.558;13.188;2023-07-29T03:07:57;100274.16;;;16.31;100.00
829;BME280;396;52.558;13.188;2023-07-29T03:10:24;100271.78;;;16.29;100.00
829;BME280;396;52.558;13.188;2023-07-29T03:12:50;100278.84;;;16.30;100.00
829;BME280;396;52.558;13.188;2023-07-29T03:15:17;100272.00;;;16.24;100.00
829;BME280;396;52.558;13.188;2023-07-29T03:17:43;100266.47;;;16.21;100.00
829;BME280;396;52.558;13.188;2023-07-29T03:20:10;100270.31;;;16.20;100.00
829;BME280;396;52.558;13.188;2023-07-29T03:22:38;100258.69;;;16.23;100.00
829;BME280;396;52.558;13.188;2023-07-29T03:25:05;100270.66;;;16.18;100.00
829;BME280;396;52.558;13.188;2023-07-29T03:27:32;100268.53;;;16.11;100.00
829;BME280;396;52.558;13.188;2023-07-29T03:29:59;100263.66;;;16.05;100.00
829;BME280;396;52.558;13.188;2023-07-29T03:32:25;100272.78;;;15.97;100.00
829;BME280;396;52.558;13.188;2023-07-29T03:34:52;100272.78;;;15.97;100.00
829;BME280;396;52.558;13.188;2023-07-29T03:37:19;100268.00;;;15.94;100.00
829;BME280;396;52.558;13.188;2023-07-29T03:39:48;100273.13;;;15.95;100.00
829;BME280;396;52.558;13.188;2023-07-29T03:42:14;100269.59;;;15.95;100.00
829;BME280;396;52.558;13.188;2023-07-29T03:44:41;100260.25;;;15.96;100.00
829;BME280;396;52.558;13.188;2023-07-29T03:47:07;100264.56;;;15.97;100.00
829;BME280;396;52.558;13.188;2023-07-29T03:49:34;100256.28;;;15.93;100.00
829;BME280;396;52.558;13.188;2023-07-29T03:52:01;100264.34;;;16.02;100.00
829;BME280;396;52.558;13.188;2023-07-29T03:54:27;100264.34;;;16.02;100.00
829;BME280;396;52.558;13.188;2023-07-29T03:56:55;100263.44;;;15.98;100.00
829;BME280;396;52.558;13.188;2023-07-29T03:59:22;100260.38;;;15.99;100.00
829;BME280;396;52.558;13.188;2023-07-29T04:01:48;100254.66;;;16.04;100.00
829;BME280;396;52.558;13.188;2023-07-29T04:04:15;100265.69;;;16.08;100.00
829;BME280;396;52.558;13.188;2023-07-29T04:06:42;100263.28;;;16.06;100.00
829;BME280;396;52.558;13.188;2023-07-29T04:09:08;100260.25;;;16.08;100.00
829;BME280;396;52.558;13.188;2023-07-29T04:11:35;100264.31;;;16.14;100.00
829;BME280;396;52.558;13.188;2023-07-29T04:14:03;100258.47;;;16.15;100.00
829;BME280;396;52.558;13.188;2023-07-29T04:16:30;100261.56;;;16.14;100.00
829;BME280;396;52.558;13.188;2023-07-29T04:18:56;100262.91;;;16.20;100.00
829;BME280;396;52.558;13.188;2023-07-29T04:21:23;100257.44;;;16.20;100.00
829;BME280;396;52.558;13.188;2023-07-29T04:23:50;100255.19;;;16.22;100.00
829;BME280;396;52.558;13.188;2023-07-29T04:26:16;100264.63;;;16.25;100.00
829;BME280;396;52.558;13.188;2023-07-29T04:28:43;100263.22;;;16.31;100.00
829;BME280;396;52.558;13.188;2023-07-29T04:31:11;100261.72;;;16.33;100.00
829;BME280;396;52.558;13.188;2023-07-29T04:33:37;100260.72;;;16.38;100.00
829;BME280;396;52.558;13.188;2023-07-29T04:36:04;100261.00;;;16.49;100.00
829;BME280;396;52.558;13.188;2023-07-29T04:38:32;100261.63;;;16.58;100.00
829;BME280;396;52.558;13.188;2023-07-29T04:40:59;100273.91;;;16.64;100.00
829;BME280;396;52.558;13.188;2023-07-29T04:43:27;100272.66;;;16.74;100.00
829;BME280;396;52.558;13.188;2023-07-29T04:45:54;100279.88;;;16.82;100.00
829;BME280;396;52.558;13.188;2023-07-29T04:48:22;100279.28;;;16.88;100.00
829;BME280;396;52.558;13.188;2023-07-29T04:50:49;100275.06;;;16.91;100.00
829;BME280;396;52.558;13.188;2023-07-29T04:53:15;100275.31;;;17.02;100.00
829;BME280;396;52.558;13.188;2023-07-29T04:55:42;100276.84;;;17.15;100.00
829;BME280;396;52.558;13.188;2023-07-29T04:58:09;100278.34;;;17.28;100.00
829;BME280;396;52.558;13.188;2023-07-29T05:00:35;100268.44;;;17.39;100.00
829;BME280;396;52.558;13.188;2023-07-29T05:03:02;100259.31;;;17.51;100.00
829;BME280;396;52.558;13.188;2023-07-29T05:05:30;100270.44;;;17.58;100.00
829;BME280;396;52.558;13.188;2023-07-29T05:07:57;100262.84;;;17.68;100.00
829;BME280;396;52.558;13.188;2023-07-29T05:10:23;100259.47;;;17.74;100.00
829;BME280;396;52.558;13.188;2023-07-29T05:12:50;100251.06;;;17.83;100.00
829;BME280;396;52.558;13.188;2023-07-29T05:15:16;100251.31;;;17.94;100.00
829;BME280;396;52.558;13.188;2023-07-29T05:17:44;100244.09;;;18.05;100.00
829;BME280;396;52.558;13.188;2023-07-29T05:20:11;100257.25;;;18.15;100.00
829;BME280;396;52.558;13.188;2023-07-29T05:22:39;100258.25;;;18.26;100.00
829;BME280;396;52.558;13.188;2023-07-29T05:25:06;100258.81;;;18.35;100.00
829;BME280;396;52.558;13.188;2023-07-29T05:27:33;100263.28;;;18.44;100.00
829;BME280;396;52.558;13.188;2023-07-29T05:30:00;100263.38;;;18.47;100.00
829;BME280;396;52.558;13.188;2023-07-29T05:32:26;100269.72;;;18.51;100.00
829;BME280;396;52.558;13.188;2023-07-29T05:34:53;100272.09;;;18.53;100.00
829;BME280;396;52.558;13.188;2023-07-29T05:37:20;100268.19;;;18.54;100.00
829;BME280;396;52.558;13.188;2023-07-29T05:39:48;100267.47;;;18.57;100.00
829;BME280;396;52.558;13.188;2023-07-29T05:42:14;100252.25;;;18.59;100.00
829;BME280;396;52.558;13.188;2023-07-29T05:44:41;100252.28;;;18.63;100.00
829;BME280;396;52.558;13.188;2023-07-29T05:47:08;100243.72;;;18.64;100.00
829;BME280;396;52.558;13.188;2023-07-29T05:49:34;100252.88;;;18.72;100.00
829;BME280;396;52.558;13.188;2023-07-29T05:52:01;100249.47;;;18.79;100.00
829;BME280;396;52.558;13.188;2023-07-29T05:54:28;100248.38;;;18.83;100.00
829;BME280;396;52.558;13.188;2023-07-29T05:56:56;100239.84;;;18.88;100.00
829;BME280;396;52.558;13.188;2023-07-29T05:59:22;100243.88;;;18.95;100.00
829;BME280;396;52.558;13.188;2023-07-29T06:01:49;100233.06;;;19.05;100.00
829;BME280;396;52.558;13.188;2023-07-29T06:04:15;100223.00;;;19.13;100.00
829;BME280;396;52.558;13.188;2023-07-29T06:06:42;100220.75;;;19.19;100.00
829;BME280;396;52.558;13.188;2023-07-29T06:09:09;100225.13;;;19.23;100.00
829;BME280;396;52.558;13.188;2023-07-29T06:11:35;100221.34;;;19.31;100.00
829;BME280;396;52.558;13.188;2023-07-29T06:14:03;100228.09;;;19.37;100.00
829;BME280;396;52.558;13.188;2023-07-29T06:16:30;100223.44;;;19.41;100.00
829;BME280;396;52.558;13.188;2023-07-29T06:18:57;100224.34;;;19.49;100.00
829;BME280;396;52.558;13.188;2023-07-29T06:21:23;100235.88;;;19.58;100.00
829;BME280;396;52.558;13.188;2023-07-29T06:23:50;100234.84;;;19.67;100.00
829;BME280;396;52.558;13.188;2023-07-29T06:26:17;100234.56;;;19.75;100.00
829;BME280;396;52.558;13.188;2023-07-29T06:28:43;100234.31;;;19.87;100.00
829;BME280;396;52.558;13.188;2023-07-29T06:31:11;100237.91;;;19.91;100.00
829;BME280;396;52.558;13.188;2023-07-29T06:33:38;100232.13;;;20.00;100.00
829;BME280;396;52.558;13.188;2023-07-29T06:36:04;100247.22;;;20.10;100.00
829;BME280;396;52.558;13.188;2023-07-29T06:38:31;100248.06;;;20.17;100.00
829;BME280;396;52.558;13.188;2023-07-29T06:40:58;100245.47;;;20.28;100.00
829;BME280;396;52.558;13.188;2023-07-29T06:43:24;100237.22;;;20.32;100.00
829;BME280;396;52.558;13.188;2023-07-29T06:45:51;100262.13;;;20.42;100.00
829;BME280;396;52.558;13.188;2023-07-29T06:48:19;100255.94;;;20.49;100.00
829;BME280;396;52.558;13.188;2023-07-29T06:50:46;100269.81;;;20.60;100.00
829;BME280;396;52.558;13.188;2023-07-29T06:53:12;100277.81;;;20.72;100.00
829;BME280;396;52.558;13.188;2023-07-29T06:55:39;100272.47;;;20.86;100.00
829;BME280;396;52.558;13.188;2023-07-29T06:58:06;100270.59;;;20.98;100.00
829;BME280;396;52.558;13.188;2023-07-29T07:00:32;100265.44;;;20.92;100.00
829;BME280;396;52.558;13.188;2023-07-29T07:02:59;100263.09;;;20.95;100.00
829;BME280;396;52.558;13.188;2023-07-29T07:05:27;100262.34;;;21.01;100.00
829;BME280;396;52.558;13.188;2023-07-29T07:07:54;100256.56;;;21.13;100.00
829;BME280;396;52.558;13.188;2023-07-29T07:10:20;100261.72;;;21.19;100.00
829;BME280;396;52.558;13.188;2023-07-29T07:12:47;100266.41;;;21.14;100.00
829;BME280;396;52.558;13.188;2023-07-29T07:15:13;100268.78;;;21.16;100.00
829;BME280;396;52.558;13.188;2023-07-29T07:17:40;100266.16;;;21.30;100.00
829;BME280;396;52.558;13.188;2023-07-29T07:20:07;100263.75;;;21.29;100.00
829;BME280;396;52.558;13.188;2023-07-29T07:22:35;100265.78;;;21.32;100.00
829;BME280;396;52.558;13.188;2023-07-29T07:25:02;100265.69;;;21.25;100.00
829;BME280;396;52.558;13.188;2023-07-29T07:27:29;100265.41;;;21.33;100.00
829;BME280;396;52.558;13.188;2023-07-29T07:29:55;100261.91;;;21.36;100.00
829;BME280;396;52.558;13.188;2023-07-29T07:32:22;100253.72;;;21.51;100.00
829;BME280;396;52.558;13.188;2023-07-29T07:34:49;100254.19;;;21.63;100.00
829;BME280;396;52.558;13.188;2023-07-29T07:37:15;100244.81;;;21.72;100.00
829;BME280;396;52.558;13.188;2023-07-29T07:39:43;100251.16;;;21.79;100.00
829;BME280;396;52.558;13.188;2023-07-29T07:42:10;100238.53;;;21.75;100.00
829;BME280;396;52.558;13.188;2023-07-29T07:44:36;100244.06;;;21.82;100.00
829;BME280;396;52.558;13.188;2023-07-29T07:47:03;100235.41;;;21.80;100.00
829;BME280;396;52.558;13.188;2023-07-29T07:49:30;100229.81;;;21.69;100.00
829;BME280;396;52.558;13.188;2023-07-29T07:51:57;100225.91;;;21.77;100.00
829;BME280;396;52.558;13.188;2023-07-29T07:54:23;100230.72;;;21.87;100.00
829;BME280;396;52.558;13.188;2023-07-29T07:56:51;100228.38;;;21.93;100.00
829;BME280;396;52.558;13.188;2023-07-29T07:59:19;100235.53;;;22.08;100.00
829;BME280;396;52.558;13.188;2023-07-29T08:01:45;100237.97;;;22.21;100.00
829;BME280;396;52.558;13.188;2023-07-29T08:04:12;100234.09;;;22.39;99.40
829;BME280;396;52.558;13.188;2023-07-29T08:06:38;100230.59;;;22.50;98.94
829;BME280;396;52.558;13.188;2023-07-29T08:09:05;100237.72;;;22.58;95.92
829;BME280;396;52.558;13.188;2023-07-29T08:11:32;100236.91;;;22.57;95.01
829;BME280;396;52.558;13.188;2023-07-29T08:14:00;100236.53;;;22.59;95.71
829;BME280;396;52.558;13.188;2023-07-29T08:16:26;100235.72;;;22.62;96.80
829;BME280;396;52.558;13.188;2023-07-29T08:18:53;100234.19;;;22.68;95.54
829;BME280;396;52.558;13.188;2023-07-29T08:21:19;100231.00;;;22.70;95.45
829;BME280;396;52.558;13.188;2023-07-29T08:23:46;100229.03;;;22.70;95.43
829;BME280;396;52.558;13.188;2023-07-29T08:26:13;100221.56;;;22.85;95.21
829;BME280;396;52.558;13.188;2023-07-29T08:28:39;100215.69;;;23.01;95.19
829;BME280;396;52.558;13.188;2023-07-29T08:31:07;100221.97;;;23.19;93.18
829;BME280;396;52.558;13.188;2023-07-29T08:33:34;100223.56;;;23.38;92.65
829;BME280;396;52.558;13.188;2023-07-29T08:36:01;100225.09;;;23.53;92.12
829;BME280;396;52.558;13.188;2023-07-29T08:38:27;100212.44;;;23.59;92.05
829;BME280;396;52.558;13.188;2023-07-29T08:40:59;100215.59;;;23.72;93.51
829;BME280;396;52.558;13.188;2023-07-29T08:43:32;100215.19;;;23.77;92.65
829;BME280;396;52.558;13.188;2023-07-29T08:45:59;100218.38;;;23.72;91.50
829;BME280;396;52.558;13.188;2023-07-29T08:48:33;100218.78;;;23.71;90.84
829;BME280;396;52.558;13.188;2023-07-29T08:51:03;100218.41;;;23.65;91.47
829;BME280;396;52.558;13.188;2023-07-29T08:53:31;100218.00;;;23.74;90.16
829;BME280;396;52.558;13.188;2023-07-29T08:55:58;100213.63;;;23.80;90.50
829;BME280;396;52.558;13.188;2023-07-29T08:58:25;100220.34;;;23.75;91.27
829;BME280;396;52.558;13.188;2023-07-29T09:00:52;100216.03;;;23.67;89.42
829;BME280;396;52.558;13.188;2023-07-29T09:03:19;100205.75;;;23.60;90.40
829;BME280;396;52.558;13.188;2023-07-29T09:05:47;100208.91;;;23.59;90.84
829;BME280;396;52.558;13.188;2023-07-29T09:08:14;100209.72;;;23.56;91.39
829;BME280;396;52.558;13.188;2023-07-29T09:10:41;100204.56;;;23.58;91.69
829;BME280;396;52.558;13.188;2023-07-29T09:13:07;100205.75;;;23.57;90.17
829;BME280;396;52.558;13.188;2023-07-29T09:15:35;100204.16;;;23.70;91.19
829;BME280;396;52.558;13.188;2023-07-29T09:18:09;100201.78;;;23.72;91.45
829;BME280;396;52.558;13.188;2023-07-29T09:20:36;100194.66;;;23.82;91.08
829;BME280;396;52.558;13.188;2023-07-29T09:23:07;100186.31;;;23.89;89.36
829;BME280;396;52.558;13.188;2023-07-29T09:25:34;100188.63;;;24.01;90.01
829;BME280;396;52.558;13.188;2023-07-29T09:28:01;100189.00;;;24.10;87.88
829;BME280;396;52.558;13.188;2023-07-29T09:30:33;100191.69;;;24.25;87.48
829;BME280;396;52.558;13.188;2023-07-29T09:33:00;100189.69;;;24.29;88.37
829;BME280;396;52.558;13.188;2023-07-29T09:35:28;100194.78;;;24.45;88.97
829;BME280;396;52.558;13.188;2023-07-29T09:37:55;100186.06;;;24.42;86.97
829;BME280;396;52.558;13.188;2023-07-29T09:40:22;100180.56;;;24.35;87.18
829;BME280;396;52.558;13.188;2023-07-29T09:42:49;100184.94;;;24.29;88.88
829;BME280;396;52.558;13.188;2023-07-29T09:45:21;100175.84;;;24.29;87.83
829;BME280;396;52.558;13.188;2023-07-29T09:47:48;100174.22;;;24.35;88.12
829;BME280;396;52.558;13.188;2023-07-29T09:50:15;100168.69;;;24.38;89.95
829;BME280;396;52.558;13.188;2023-07-29T09:52:43;100161.56;;;24.34;89.11
829;BME280;396;52.558;13.188;2023-07-29T09:55:11;100163.19;;;24.31;86.76
829;BME280;396;52.558;13.188;2023-07-29T09:57:39;100162.34;;;24.34;87.09
829;BME280;396;52.558;13.188;2023-07-29T10:00:07;100152.03;;;24.46;86.97
829;BME280;396;52.558;13.188;2023-07-29T10:02:37;100152.44;;;24.44;86.27
829;BME280;396;52.558;13.188;2023-07-29T10:05:06;100141.41;;;24.37;86.82
829;BME280;396;52.558;13.188;2023-07-29T10:07:33;100139.09;;;24.21;88.80
829;BME280;396;52.558;13.188;2023-07-29T10:10:02;100143.50;;;24.15;88.80
829;BME280;396;52.558;13.188;2023-07-29T10:12:30;100143.16;;;24.06;87.73
829;BME280;396;52.558;13.188;2023-07-29T10:15:02;100130.94;;;23.96;87.97
829;BME280;396;52.558;13.188;2023-07-29T10:17:29;100125.88;;;23.80;90.71
829;BME280;396;52.558;13.188;2023-07-29T10:19:56;100133.47;;;23.65;92.10
829;BME280;396;52.558;13.188;2023-07-29T10:22:25;100127.19;;;23.51;91.17
829;BME280;396;52.558;13.188;2023-07-29T10:24:57;100131.09;;;23.46;91.74
829;BME280;396;52.558;13.188;2023-07-29T10:27:27;100126.81;;;23.27;93.43
829;BME280;396;52.558;13.188;2023-07-29T10:29:55;100135.53;;;23.22;93.20
829;BME280;396;52.558;13.188;2023-07-29T10:32:25;100142.66;;;23.16;96.33
829;BME280;396;52.558;13.188;2023-07-29T10:34:53;100149.00;;;22.91;99.10
829;BME280;396;52.558;13.188;2023-07-29T10:37:20;100145.00;;;22.53;100.00
829;BME280;396;52.558;13.188;2023-07-29T10:39:54;100136.28;;;22.15;100.00
829;BME280;396;52.558;13.188;2023-07-29T10:42:22;100129.06;;;21.79;100.00
829;BME280;396;52.558;13.188;2023-07-29T10:44:49;100115.56;;;21.59;100.00
829;BME280;396;52.558;13.188;2023-07-29T10:47:18;100117.88;;;21.43;100.00
829;BME280;396;52.558;13.188;2023-07-29T10:49:49;100107.06;;;21.20;100.00
829;BME280;396;52.558;13.188;2023-07-29T10:52:17;100100.66;;;21.02;100.00
829;BME280;396;52.558;13.188;2023-07-29T10:54:53;100117.91;;;20.91;100.00
829;BME280;396;52.558;13.188;2023-07-29T10:57:31;100125.31;;;20.84;100.00
829;BME280;396;52.558;13.188;2023-07-29T10:59:59;100146.56;;;20.83;100.00
829;BME280;396;52.558;13.188;2023-07-29T11:02:30;100177.59;;;20.77;100.00
829;BME280;396;52.558;13.188;2023-07-29T11:04:59;100201.50;;;20.69;100.00
829;BME280;396;52.558;13.188;2023-07-29T11:07:26;100181.13;;;20.40;100.00
829;BME280;396;52.558;13.188;2023-07-29T11:10:00;100162.34;;;20.12;100.00
829;BME280;396;52.558;13.188;2023-07-29T11:12:40;100168.88;;;19.97;100.00
829;BME280;396;52.558;13.188;2023-07-29T11:15:29;100162.94;;;19.95;100.00
829;BME280;396;52.558;13.188;2023-07-29T11:17:56;100155.03;;;19.89;100.00
829;BME280;396;52.558;13.188;2023-07-29T11:20:26;100156.59;;;19.90;100.00
829;BME280;396;52.558;13.188;2023-07-29T11:22:53;100144.88;;;19.94;100.00
829;BME280;396;52.558;13.188;2023-07-29T11:25:22;100139.41;;;19.97;100.00
829;BME280;396;52.558;13.188;2023-07-29T11:27:51;100134.78;;;20.05;100.00
829;BME280;396;52.558;13.188;2023-07-29T11:30:18;100123.13;;;20.15;100.00
829;BME280;396;52.558;13.188;2023-07-29T11:32:45;100120.47;;;20.26;100.00
829;BME280;396;52.558;13.188;2023-07-29T11:35:14;100127.31;;;20.42;100.00
829;BME280;396;52.558;13.188;2023-07-29T11:37:44;100124.53;;;20.39;100.00
829;BME280;396;52.558;13.188;2023-07-29T11:40:14;100121.31;;;20.33;100.00
829;BME280;396;52.558;13.188;2023-07-29T11:42:41;100118.94;;;20.32;100.00
829;BME280;396;52.558;13.188;2023-07-29T11:45:09;100109.97;;;20.38;100.00
829;BME280;396;52.558;13.188;2023-07-29T11:47:36;100103.81;;;20.49;100.00
829;BME280;396;52.558;13.188;2023-07-29T11:50:04;100098.38;;;20.56;100.00
829;BME280;396;52.558;13.188;2023-07-29T11:52:31;100103.50;;;20.61;100.00
829;BME280;396;52.558;13.188;2023-07-29T11:55:00;100094.13;;;20.65;100.00
829;BME280;396;52.558;13.188;2023-07-29T11:57:28;100093.38;;;20.69;100.00
829;BME280;396;52.558;13.188;2023-07-29T11:59:55;100100.13;;;20.78;100.00
829;BME280;396;52.558;13.188;2023-07-29T12:02:23;100106.09;;;20.91;100.00
829;BME280;396;52.558;13.188;2023-07-29T12:04:51;100118.75;;;21.03;100.00
829;BME280;396;52.558;13.188;2023-07-29T12:07:18;100116.84;;;21.10;100.00
829;BME280;396;52.558;13.188;2023-07-29T12:09:46;100116.13;;;21.17;100.00
829;BME280;396;52.558;13.188;2023-07-29T12:12:14;100117.75;;;21.25;100.00
829;BME280;396;52.558;13.188;2023-07-29T12:14:43;100120.19;;;21.34;100.00
829;BME280;396;52.558;13.188;2023-07-29T12:17:12;100126.47;;;21.34;100.00
829;BME280;396;52.558;13.188;2023-07-29T12:19:39;100124.88;;;21.33;100.00
829;BME280;396;52.558;13.188;2023-07-29T12:22:08;100119.81;;;21.39;100.00
829;BME280;396;52.558;13.188;2023-07-29T12:24:36;100127.34;;;21.53;100.00
829;BME280;396;52.558;13.188;2023-07-29T12:27:03;100123.91;;;21.77;100.00
829;BME280;396;52.558;13.188;2023-07-29T12:29:32;100118.47;;;21.91;100.00
829;BME280;396;52.558;13.188;2023-07-29T12:32:06;100131.13;;;22.10;100.00
829;BME280;396;52.558;13.188;2023-07-29T12:34:32;100124.88;;;22.24;100.00
829;BME280;396;52.558;13.188;2023-07-29T12:37:02;100115.03;;;22.45;100.00
829;BME280;396;52.558;13.188;2023-07-29T12:39:32;100119.78;;;22.69;100.00
829;BME280;396;52.558;13.188;2023-07-29T12:42:01;100119.00;;;22.76;100.00
829;BME280;396;52.558;13.188;2023-07-29T12:44:30;100098.84;;;22.82;100.00
829;BME280;396;52.558;13.188;2023-07-29T12:46:59;100106.34;;;22.82;100.00
829;BME280;396;52.558;13.188;2023-07-29T12:49:25;100108.31;;;23.17;100.00
829;BME280;396;52.558;13.188;2023-07-29T12:51:53;100100.63;;;23.71;100.00
829;BME280;396;52.558;13.188;2023-07-29T12:54:20;100113.81;;;24.19;100.00
829;BME280;396;52.558;13.188;2023-07-29T12:56:46;100105.75;;;24.46;100.00
829;BME280;396;52.558;13.188;2023-07-29T12:59:13;100111.53;;;25.11;100.00
829;BME280;396;52.558;13.188;2023-07-29T13:01:40;100109.72;;;25.31;100.00
829;BME280;396;52.558;13.188;2023-07-29T13:04:09;100117.09;;;25.04;100.00
829;BME280;396;52.558;13.188;2023-07-29T13:06:35;100112.78;;;24.58;100.00
829;BME280;396;52.558;13.188;2023-07-29T13:09:02;100110.56;;;24.35;100.00
829;BME280;396;52.558;13.188;2023-07-29T13:11:30;100111.91;;;24.09;100.00
829;BME280;396;52.558;13.188;2023-07-29T13:13:57;100120.13;;;24.20;100.00